Time;durP1;ratioP1;P1;durP2;ratioP2;P2;SDS_P1;SDS_P2;PMS_P1;PMS_P2;Temp;Humidity;BMP_temperature;BMP_pressure;BME280_temperature;BME280_humidity;BME280_pressure;Samples;Min_cycle;Max_cycle;Signal;HPM_P1;HPM_P2
2023/01/14 00:01:16;;;;;;;5.90;1.48;;;;;;;5.81;100.00;101065.97;4945764;28;20051;-80
2023/01/14 00:03:44;;;;;;;4.90;0.98;;;;;;;5.77;100.00;101061.53;4950117;29;20062;-82
2023/01/14 00:06:15;;;;;;;3.90;1.10;;;;;;;5.75;100.00;101067.56;4922691;28;20047;-80
2023/01/14 00:08:43;;;;;;;5.07;1.60;;;;;;;5.73;100.00;101058.78;4974326;28;20054;-80
2023/01/14 00:11:12;;;;;;;2.10;0.85;;;;;;;5.71;100.00;101057.84;4971375;28;20078;-80
2023/01/14 00:13:41;;;;;;;1.77;1.00;;;;;;;5.69;100.00;101063.06;4946309;28;20058;-80
2023/01/14 00:16:12;;;;;;;7.32;1.10;;;;;;;5.70;100.00;101064.81;4974032;28;20038;-81
2023/01/14 00:18:40;;;;;;;5.07;1.20;;;;;;;5.70;100.00;101075.28;4952354;28;20042;-79
2023/01/14 00:21:12;;;;;;;3.08;0.93;;;;;;;5.69;100.00;101076.13;4905594;28;20710;-79
2023/01/14 00:23:40;;;;;;;4.57;1.20;;;;;;;5.68;100.00;101071.75;4967302;28;20128;-80
2023/01/14 00:26:14;;;;;;;5.55;1.60;;;;;;;5.70;100.00;101058.72;4953187;28;20050;-79
2023/01/14 00:28:45;;;;;;;4.68;1.42;;;;;;;5.70;100.00;101067.44;4970494;28;20046;-79
2023/01/14 00:31:16;;;;;;;8.27;1.70;;;;;;;5.72;100.00;101072.72;4936000;28;20043;-79
2023/01/14 00:33:45;;;;;;;6.95;1.77;;;;;;;5.72;100.00;101063.13;4951048;29;20421;-80
2023/01/14 00:36:15;;;;;;;8.18;1.50;;;;;;;5.73;100.00;101070.13;4924391;28;20766;-79
2023/01/14 00:38:43;;;;;;;6.80;1.55;;;;;;;5.73;100.00;101070.13;4967535;28;20046;-80
2023/01/14 00:41:17;;;;;;;7.70;1.80;;;;;;;5.74;100.00;101077.13;4953206;28;20479;-80
2023/01/14 00:43:48;;;;;;;7.38;1.98;;;;;;;5.75;100.00;101071.06;4954389;28;20062;-79
2023/01/14 00:46:33;;;;;;;14.90;1.95;;;;;;;5.73;100.00;101064.91;4941703;28;20054;-81
2023/01/14 00:49:03;;;;;;;11.85;2.13;;;;;;;5.72;100.00;101073.59;4965640;28;20060;-81
2023/01/14 00:51:34;;;;;;;11.20;2.80;;;;;;;5.72;100.00;101083.16;4939331;28;20558;-80
2023/01/14 00:54:02;;;;;;;17.02;2.55;;;;;;;5.72;100.00;101084.03;4927223;29;20051;-81
2023/01/14 00:56:32;;;;;;;12.93;3.13;;;;;;;5.72;100.00;101083.16;4950543;28;20057;-80
2023/01/14 00:58:59;;;;;;;16.20;3.03;;;;;;;5.70;100.00;101085.75;4920620;28;20404;-79
2023/01/14 01:01:27;;;;;;;18.63;2.95;;;;;;;5.69;100.00;101094.44;4945288;28;20059;-80
2023/01/14 01:03:57;;;;;;;21.90;3.40;;;;;;;5.68;100.00;101094.41;4949783;28;20389;-79
2023/01/14 01:06:25;;;;;;;25.25;4.43;;;;;;;5.66;100.00;101099.56;4936596;28;20062;-80
2023/01/14 01:09:09;;;;;;;22.00;3.58;;;;;;;5.63;100.00;101108.22;4920002;28;20051;-79
2023/01/14 01:11:38;;;;;;;26.13;3.58;;;;;;;5.63;100.00;101107.31;4936858;28;20063;-79
2023/01/14 01:14:06;;;;;;;19.33;4.30;;;;;;;5.64;100.00;101104.75;4951187;28;20051;-79
2023/01/14 01:16:33;;;;;;;25.25;3.08;;;;;;;5.66;100.00;101108.28;4951718;28;20042;-79
2023/01/14 01:19:00;;;;;;;24.52;3.90;;;;;;;5.67;100.00;101101.34;4945287;28;20035;-81
2023/01/14 01:21:28;;;;;;;33.65;5.07;;;;;;;5.70;100.00;101109.28;4954364;28;20058;-80
2023/01/14 01:23:56;;;;;;;26.58;3.90;;;;;;;5.70;100.00;101106.66;4890003;29;20048;-81
2023/01/14 01:26:24;;;;;;;23.05;3.80;;;;;;;5.70;100.00;101114.50;4939178;29;20056;-81
2023/01/14 01:28:55;;;;;;;;;;;;;;;5.68;100.00;101107.47;4943708;29;20516;-79
2023/01/14 01:31:24;;;;;;;27.58;4.00;;;;;;;5.64;100.00;101117.84;4949449;29;19931;-81
2023/01/14 01:33:53;;;;;;;21.50;3.67;;;;;;;5.62;100.00;101113.41;4936593;29;20054;-80
2023/01/14 01:36:23;;;;;;;26.60;4.30;;;;;;;5.60;100.00;101110.75;4937290;29;20113;-81
2023/01/14 01:38:51;;;;;;;26.70;3.95;;;;;;;5.56;100.00;101108.91;4910423;28;20055;-80
2023/01/14 01:41:25;;;;;;;26.70;3.55;;;;;;;5.53;100.00;101118.38;4950888;29;20059;-79
2023/01/14 01:44:10;;;;;;;25.23;3.53;;;;;;;5.47;100.00;101112.13;4936963;29;20416;-79
2023/01/14 01:46:38;;;;;;;24.73;3.67;;;;;;;5.47;100.00;101104.28;4935361;29;20408;-79
2023/01/14 01:49:21;;;;;;;15.55;3.33;;;;;;;5.43;100.00;101105.06;4932838;29;20045;-80
2023/01/14 01:51:55;;;;;;;16.77;3.20;;;;;;;5.41;100.00;101105.88;4930665;29;20440;-79
2023/01/14 01:54:28;;;;;;;24.98;4.93;;;;;;;5.40;100.00;101102.34;4912105;28;20062;-79
2023/01/14 01:56:57;;;;;;;20.35;3.83;;;;;;;5.41;100.00;101100.63;4913274;29;20055;-79
2023/01/14 01:59:31;;;;;;;27.48;4.63;;;;;;;5.42;100.00;101110.22;4926023;29;20048;-80
2023/01/14 02:01:58;;;;;;;28.20;4.53;;;;;;;5.42;100.00;101121.56;4935443;29;20077;-79
2023/01/14 02:04:28;;;;;;;17.17;3.08;;;;;;;5.42;100.00;101121.56;4906299;29;20086;-79
2023/01/14 02:06:55;;;;;;;25.40;3.67;;;;;;;5.47;100.00;101127.81;4904618;29;20066;-79
2023/01/14 02:09:23;;;;;;;21.02;3.38;;;;;;;5.51;100.00;101128.78;4901892;28;20044;-79
2023/01/14 02:12:04;;;;;;;21.02;3.40;;;;;;;5.54;100.00;101121.03;4936458;29;20047;-79
2023/01/14 02:14:37;;;;;;;22.33;4.28;;;;;;;5.57;100.00;101109.78;4941741;29;20445;-79
2023/01/14 02:17:25;;;;;;;20.05;3.40;;;;;;;5.59;100.00;101124.66;4930638;29;20051;-79
2023/01/14 02:20:12;;;;;;;22.23;3.70;;;;;;;5.61;100.00;101119.47;4924125;29;20513;-79
2023/01/14 02:22:55;;;;;;;15.85;3.00;;;;;;;5.63;100.00;101117.78;4926826;28;20054;-79
2023/01/14 02:25:29;;;;;;;14.93;3.72;;;;;;;5.64;100.00;101122.19;4923634;28;20123;-79
2023/01/14 02:28:01;;;;;;;18.90;3.63;;;;;;;5.65;100.00;101119.63;4962414;28;20102;-79
2023/01/14 02:30:48;;;;;;;17.95;3.50;;;;;;;5.68;100.00;101110.09;4956356;28;20522;-79
2023/01/14 02:33:42;;;;;;;25.05;4.68;;;;;;;5.65;100.00;101132.69;4967638;28;20042;-81
2023/01/14 02:36:48;;;;;;;20.17;3.72;;;;;;;5.62;100.00;101121.25;4936405;28;20058;-80
2023/01/14 02:39:25;;;;;;;17.98;3.05;;;;;;;5.61;100.00;101115.16;4953661;28;20062;-80
2023/01/14 02:45:25;;;;;;;17.85;3.55;;;;;;;5.64;100.00;101123.06;4959673;28;20472;-80
2023/01/14 02:47:59;;;;;;;13.13;3.22;;;;;;;5.64;100.00;101123.06;4949887;28;20047;-79
2023/01/14 02:50:34;;;;;;;15.13;3.08;;;;;;;5.64;100.00;101109.09;4934649;29;20090;-80
2023/01/14 02:53:11;;;;;;;20.65;4.07;;;;;;;5.63;100.00;101104.72;4949535;28;20047;-80
2023/01/14 02:55:39;;;;;;;13.68;3.45;;;;;;;5.60;100.00;101104.66;4954006;29;20062;-79
2023/01/14 02:58:38;;;;;;;17.25;3.38;;;;;;;5.55;100.00;101094.03;4923154;28;20053;-80
2023/01/14 03:01:41;;;;;;;24.05;3.28;;;;;;;5.50;100.00;101085.22;4951519;28;20039;-80
2023/01/14 03:04:39;;;;;;;17.65;3.40;;;;;;;5.44;100.00;101096.38;4936882;28;20047;-79
2023/01/14 03:07:15;;;;;;;19.20;3.67;;;;;;;5.38;100.00;101087.47;4936677;28;20559;-79
2023/01/14 03:10:04;;;;;;;19.23;3.53;;;;;;;5.31;100.00;101081.16;4961894;28;20432;-79
2023/01/14 03:12:34;;;;;;;30.48;3.65;;;;;;;5.24;100.00;101090.56;4955441;28;20050;-79
2023/01/14 03:15:19;;;;;;;17.50;3.25;;;;;;;5.20;100.00;101093.06;4905642;28;20065;-80
2023/01/14 03:18:07;;;;;;;17.98;3.55;;;;;;;5.13;100.00;101097.22;4951775;28;20050;-80
2023/01/14 03:20:40;;;;;;;21.52;3.72;;;;;;;5.12;100.00;101097.16;4944605;29;20051;-79
2023/01/14 03:23:13;;;;;;;16.05;2.90;;;;;;;5.12;100.00;101094.56;4937739;29;20066;-80
2023/01/14 03:25:44;;;;;;;24.67;3.50;;;;;;;5.12;100.00;101094.56;4928498;28;20050;-79
2023/01/14 03:28:28;;;;;;;21.52;3.20;;;;;;;5.14;100.00;101092.88;4954667;28;20408;-79
2023/01/14 03:31:02;;;;;;;22.75;4.28;;;;;;;5.18;100.00;101098.25;4910530;28;20055;-80
2023/01/14 03:34:01;;;;;;;25.67;5.03;;;;;;;5.19;100.00;101094.78;4953078;28;20059;-80
2023/01/14 03:36:32;;;;;;;26.08;4.07;;;;;;;5.19;100.00;101086.94;4935459;28;20527;-81
2023/01/14 03:39:28;;;;;;;19.20;4.55;;;;;;;5.22;100.00;101088.78;4947497;28;20055;-79
2023/01/14 03:42:17;;;;;;;23.73;3.58;;;;;;;5.22;100.00;101086.16;4939900;28;20051;-80
2023/01/14 03:45:16;;;;;;;20.53;5.03;;;;;;;5.22;100.00;101080.94;4936423;28;20116;-80
2023/01/14 03:47:45;;;;;;;17.77;3.83;;;;;;;5.21;100.00;101073.94;4953584;28;20051;-80
2023/01/14 03:50:18;;;;;;;18.52;3.08;;;;;;;5.20;100.00;101067.81;4965452;28;20046;-80
2023/01/14 03:53:01;;;;;;;14.55;3.72;;;;;;;5.21;100.00;101073.94;4962745;28;20492;-79
2023/01/14 03:55:34;;;;;;;21.80;3.90;;;;;;;5.19;100.00;101071.25;4952590;28;20078;-81
2023/01/14 03:58:12;;;;;;;26.98;4.50;;;;;;;5.16;100.00;101071.19;4950195;28;20051;-79
2023/01/14 04:00:52;;;;;;;14.10;3.22;;;;;;;5.12;100.00;101060.59;4919118;29;20043;-80
2023/01/14 04:03:21;;;;;;;26.98;3.38;;;;;;;5.07;100.00;101066.56;4949656;28;20057;-79
2023/01/14 04:05:49;;;;;;;25.23;4.07;;;;;;;5.02;100.00;101062.94;4940773;28;20447;-80
2023/01/14 04:08:20;;;;;;;15.15;3.70;;;;;;;4.97;100.00;101053.19;4926250;28;20423;-80
2023/01/14 04:10:47;;;;;;;18.40;4.07;;;;;;;4.91;100.00;101048.69;4951326;29;20054;-80
2023/01/14 04:16:03;;;;;;;21.60;3.85;;;;;;;4.82;100.00;101051.00;4924372;28;20077;-80
2023/01/14 04:18:30;;;;;;;22.15;3.80;;;;;;;4.78;100.00;101057.00;4955895;28;20058;-80
2023/01/14 04:20:58;;;;;;;15.18;3.50;;;;;;;4.76;100.00;101066.50;4935461;29;20172;-80
2023/01/14 04:23:25;;;;;;;26.88;4.38;;;;;;;4.72;100.00;101062.03;4956295;28;20043;-80
2023/01/14 04:26:00;;;;;;;23.65;4.57;;;;;;;4.68;100.00;101064.53;4952449;28;20051;-79
2023/01/14 04:28:27;;;;;;;23.40;3.63;;;;;;;4.66;100.00;101062.72;4938629;28;20062;-80
2023/01/14 04:30:58;;;;;;;17.75;3.60;;;;;;;4.64;100.00;101069.63;4936566;28;20046;-79
2023/01/14 04:33:25;;;;;;;21.20;3.50;;;;;;;4.61;100.00;101060.00;4893141;28;20070;-79
2023/01/14 04:35:53;;;;;;;17.85;3.58;;;;;;;4.59;100.00;101059.03;4951062;28;20045;-80
2023/01/14 04:38:22;;;;;;;19.02;4.10;;;;;;;4.59;100.00;101060.75;4947894;28;20057;-79
2023/01/14 04:40:50;;;;;;;29.77;3.75;;;;;;;4.57;100.00;101062.44;4963873;28;20061;-79
2023/01/14 04:43:17;;;;;;;22.25;3.83;;;;;;;4.56;100.00;101055.47;4945193;29;20051;-79
2023/01/14 04:45:49;;;;;;;21.13;3.63;;;;;;;4.54;100.00;101050.19;4952884;28;20058;-79
2023/01/14 04:48:18;;;;;;;21.13;3.70;;;;;;;4.53;100.00;101050.13;4917140;28;20516;-79
2023/01/14 04:50:46;;;;;;;28.15;4.55;;;;;;;4.51;100.00;101044.88;4947822;28;20042;-79
2023/01/14 04:53:15;;;;;;;25.02;3.55;;;;;;;4.51;100.00;101042.25;4963137;28;20444;-79
2023/01/14 04:55:45;;;;;;;24.63;3.25;;;;;;;4.49;100.00;101036.97;4948264;28;20493;-79
2023/01/14 04:58:15;;;;;;;25.60;3.97;;;;;;;4.49;100.00;101034.38;4950093;28;20055;-78
2023/01/14 05:00:43;;;;;;;18.02;3.67;;;;;;;4.48;100.00;101031.75;4934794;29;20299;-79
2023/01/14 05:03:13;;;;;;;27.42;5.35;;;;;;;4.50;100.00;101040.50;4908250;28;20074;-79
2023/01/14 05:05:41;;;;;;;18.75;4.65;;;;;;;4.51;100.00;101033.56;4927642;28;20431;-80
2023/01/14 05:08:10;;;;;;;24.38;4.10;;;;;;;4.52;100.00;101032.69;4924982;28;20061;-79
2023/01/14 05:10:39;;;;;;;19.45;3.90;;;;;;;4.52;100.00;101023.16;4943584;28;20051;-79
2023/01/14 05:13:07;;;;;;;20.20;4.05;;;;;;;4.53;100.00;101024.91;4930815;29;20061;-80
2023/01/14 05:15:38;;;;;;;24.85;3.90;;;;;;;4.55;100.00;101011.91;4932320;28;20062;-79
2023/01/14 05:18:08;;;;;;;19.13;3.50;;;;;;;4.55;100.00;101011.91;4957289;28;20054;-79
2023/01/14 05:20:36;;;;;;;24.83;4.03;;;;;;;4.55;100.00;101006.69;4928517;28;20085;-79
2023/01/14 05:23:06;;;;;;;20.85;3.33;;;;;;;4.56;100.00;101014.59;4929790;28;20058;-79
2023/01/14 05:25:34;;;;;;;21.58;3.88;;;;;;;4.56;100.00;101009.38;4943587;28;20057;-79
2023/01/14 05:28:06;;;;;;;19.60;3.58;;;;;;;4.56;100.00;101009.38;4941301;28;20054;-79
2023/01/14 05:30:33;;;;;;;15.80;3.20;;;;;;;4.55;100.00;100997.13;4933188;28;20061;-79
2023/01/14 05:33:01;;;;;;;13.48;3.33;;;;;;;4.56;100.00;100992.81;4950334;28;20057;-80
2023/01/14 05:35:28;;;;;;;18.65;3.10;;;;;;;4.55;100.00;100983.22;4915239;28;20050;-79
2023/01/14 05:37:56;;;;;;;17.70;3.17;;;;;;;4.55;100.00;100986.69;4948745;28;20062;-79
2023/01/14 05:40:24;;;;;;;22.67;4.07;;;;;;;4.57;100.00;100976.31;4940516;28;20046;-80
2023/01/14 05:45:59;;;;;;;16.80;3.10;;;;;;;4.58;100.00;100978.97;4962706;28;20081;-80
2023/01/14 05:48:27;;;;;;;15.60;3.28;;;;;;;4.58;100.00;100971.16;4945551;29;20059;-80
2023/01/14 05:50:57;;;;;;;24.00;3.65;;;;;;;4.59;100.00;100961.59;4915473;28;20046;-80
2023/01/14 05:53:27;;;;;;;27.13;3.95;;;;;;;4.58;100.00;100952.88;4947571;28;20057;-79
2023/01/14 05:56:14;;;;;;;18.55;3.03;;;;;;;4.57;100.00;100938.03;4949438;28;20043;-80
2023/01/14 05:58:41;;;;;;;27.60;4.20;;;;;;;4.58;100.00;100945.03;4934625;28;20059;-79
2023/01/14 06:06:47;;;;;;;16.95;4.00;;;;;;;4.57;100.00;100934.56;4918525;28;20054;-80
2023/01/14 06:09:17;;;;;;;14.88;2.97;;;;;;;4.55;100.00;100929.28;4936871;28;20047;-82
2023/01/14 06:12:01;;;;;;;13.10;3.50;;;;;;;4.57;100.00;100917.16;4950802;28;20051;-80
2023/01/14 06:14:31;;;;;;;18.55;3.50;;;;;;;4.57;100.00;100919.78;4951710;28;20039;-78
2023/01/14 06:17:06;;;;;;;14.60;3.40;;;;;;;4.58;100.00;100915.47;4950147;28;20046;-80
2023/01/14 06:19:33;;;;;;;25.70;3.67;;;;;;;4.58;100.00;100902.41;4954708;28;20047;-80
2023/01/14 06:22:01;;;;;;;14.18;2.78;;;;;;;4.59;100.00;100899.81;4930486;28;20047;-78
2023/01/14 06:24:29;;;;;;;24.77;3.97;;;;;;;4.60;100.00;100900.72;4938968;28;20051;-78
2023/01/14 06:27:04;;;;;;;21.17;3.58;;;;;;;4.61;100.00;100898.16;4951576;28;20035;-78
2023/01/14 06:29:33;;;;;;;20.33;3.28;;;;;;;4.61;100.00;100898.16;4933056;28;20524;-78
2023/01/14 06:32:00;;;;;;;22.63;3.53;;;;;;;4.62;100.00;100897.31;4921165;28;20058;-78
2023/01/14 06:34:28;;;;;;;20.52;4.20;;;;;;;4.61;100.00;100892.03;4933081;28;20039;-79
2023/01/14 06:36:55;;;;;;;17.17;3.33;;;;;;;4.61;100.00;100885.13;4919330;28;20059;-79
2023/01/14 06:39:22;;;;;;;22.50;4.82;;;;;;;4.59;100.00;100873.72;4918313;28;20043;-80
2023/01/14 06:41:50;;;;;;;21.70;3.45;;;;;;;4.58;100.00;100864.13;4923890;29;20051;-78
2023/01/14 06:44:17;;;;;;;17.65;3.67;;;;;;;4.59;100.00;100855.44;4966803;28;20416;-78
2023/01/14 06:46:44;;;;;;;20.77;3.75;;;;;;;4.58;100.00;100852.81;4936620;28;20055;-80
2023/01/14 06:49:12;;;;;;;18.85;4.00;;;;;;;4.57;100.00;100844.09;4964840;28;20062;-80
2023/01/14 06:51:40;;;;;;;22.30;4.60;;;;;;;4.57;100.00;100844.09;4924741;28;20058;-80
2023/01/14 06:54:08;;;;;;;27.95;5.32;;;;;;;4.58;100.00;100840.66;4965006;28;20055;-81
2023/01/14 06:56:35;;;;;;;17.05;4.25;;;;;;;4.57;100.00;100822.31;4928729;28;20055;-82
2023/01/14 06:59:02;;;;;;;25.05;5.47;;;;;;;4.57;100.00;100831.03;4954134;28;20059;-82
2023/01/14 07:01:30;;;;;;;28.98;4.88;;;;;;;4.57;100.00;100823.19;4949569;29;20525;-82
2023/01/14 07:03:58;;;;;;;21.25;4.82;;;;;;;4.58;100.00;100821.50;4902930;28;20462;-80
2023/01/14 07:06:26;;;;;;;23.13;5.30;;;;;;;4.57;100.00;100815.38;4943088;28;20047;-80
2023/01/14 07:08:53;;;;;;;27.60;5.88;;;;;;;4.57;100.00;100823.19;4942186;28;20050;-80
2023/01/14 07:11:21;;;;;;;31.02;6.20;;;;;;;4.57;100.00;100810.16;4951118;29;20047;-80
2023/01/14 07:13:48;;;;;;;31.30;5.82;;;;;;;4.55;100.00;100811.84;4946345;28;20113;-80
2023/01/14 07:16:15;;;;;;;30.98;7.03;;;;;;;4.55;100.00;100809.22;4957647;28;20047;-80
2023/01/14 07:18:43;;;;;;;26.13;6.20;;;;;;;4.55;100.00;100804.00;4929248;28;20059;-80
2023/01/14 07:21:10;;;;;;;31.40;6.72;;;;;;;4.55;100.00;100790.97;4940806;28;20713;-81
2023/01/14 07:23:38;;;;;;;31.15;6.95;;;;;;;4.56;100.00;100791.88;4963140;28;20769;-81
2023/01/14 07:26:06;;;;;;;27.20;6.00;;;;;;;4.57;100.00;100781.44;4921464;29;20058;-81
2023/01/14 07:28:34;;;;;;;26.27;6.35;;;;;;;4.57;100.00;100784.06;4943843;28;20057;-81
2023/01/14 07:31:05;;;;;;;27.65;6.68;;;;;;;4.57;100.00;100781.44;4954959;28;20046;-82
2023/01/14 07:33:34;;;;;;;28.33;6.75;;;;;;;4.59;100.00;100791.94;4943824;28;20051;-82
2023/01/14 07:36:02;;;;;;;26.45;6.40;;;;;;;4.60;100.00;100791.09;4938679;28;20066;-82
2023/01/14 07:38:29;;;;;;;23.70;5.53;;;;;;;4.60;100.00;100780.66;4919766;28;20042;-82
2023/01/14 07:40:57;;;;;;;28.38;6.45;;;;;;;4.61;100.00;100770.28;4940034;28;20105;-81
2023/01/14 07:43:28;;;;;;;33.65;6.18;;;;;;;4.62;100.00;100764.19;4943937;28;20047;-81
2023/01/14 07:45:58;;;;;;;24.45;5.22;;;;;;;4.63;100.00;100752.91;4946060;29;20047;-81
2023/01/14 07:48:27;;;;;;;28.88;6.32;;;;;;;4.64;100.00;100746.84;4955055;28;20035;-81
2023/01/14 07:50:55;;;;;;;35.58;6.18;;;;;;;4.65;100.00;100732.06;4934166;28;20423;-81
2023/01/14 07:53:24;;;;;;;26.15;5.18;;;;;;;4.67;100.00;100725.16;4918387;28;20043;-81
2023/01/14 07:55:51;;;;;;;29.23;6.10;;;;;;;4.68;100.00;100719.97;4947932;28;20054;-82
2023/01/14 07:58:21;;;;;;;27.98;6.32;;;;;;;4.69;100.00;100721.75;4949062;28;20066;-82
2023/01/14 08:00:49;;;;;;;35.10;5.97;;;;;;;4.71;100.00;100708.75;4944965;28;20812;-82
2023/01/14 08:03:16;;;;;;;42.33;6.30;;;;;;;4.74;100.00;100705.31;4934654;28;20598;-81
2023/01/14 08:05:44;;;;;;;29.67;5.63;;;;;;;4.75;100.00;100699.25;4949752;28;20583;-81
2023/01/14 08:08:11;;;;;;;31.33;6.80;;;;;;;4.77;100.00;100692.34;4922802;28;20058;-81
2023/01/14 08:10:39;;;;;;;30.52;5.53;;;;;;;4.78;100.00;100689.78;4963794;28;20070;-81
2023/01/14 08:13:13;;;;;;;26.70;5.30;;;;;;;4.81;100.00;100683.72;4949918;29;20055;-82
2023/01/14 08:15:40;;;;;;;31.02;5.60;;;;;;;4.83;100.00;100680.31;4907454;28;20054;-80
2023/01/14 08:18:08;;;;;;;38.72;6.63;;;;;;;4.86;100.00;100669.06;4948870;29;20043;-80
2023/01/14 08:20:36;;;;;;;25.90;4.65;;;;;;;4.88;100.00;100672.59;4956044;28;20043;-82
2023/01/14 08:23:04;;;;;;;27.52;5.65;;;;;;;4.90;100.00;100660.44;4911060;28;20050;-81
2023/01/14 08:25:31;;;;;;;31.35;5.97;;;;;;;4.92;100.00;100658.75;4934579;29;20055;-79
2023/01/14 08:28:02;;;;;;;25.15;6.43;;;;;;;4.94;100.00;100654.44;4954363;28;20055;-80
2023/01/14 08:30:29;;;;;;;32.95;5.40;;;;;;;4.95;100.00;100637.03;4953730;28;20820;-79
2023/01/14 08:32:57;;;;;;;23.88;5.88;;;;;;;4.96;100.00;100634.47;4950422;28;20053;-82
2023/01/14 08:35:25;;;;;;;32.03;5.80;;;;;;;4.97;100.00;100625.81;4963476;28;20041;-81
2023/01/14 08:37:53;;;;;;;35.75;5.78;;;;;;;4.99;100.00;100623.19;4945364;28;20047;-80
2023/01/14 08:40:20;;;;;;;27.60;6.43;;;;;;;5.00;100.00;100615.41;4934580;28;20054;-80
2023/01/14 08:42:48;;;;;;;32.13;5.15;;;;;;;5.01;100.00;100605.84;4960372;28;20050;-82
2023/01/14 08:45:15;;;;;;;30.05;6.03;;;;;;;5.03;100.00;100597.22;4942847;28;20051;-80
2023/01/14 08:47:42;;;;;;;21.92;4.55;;;;;;;5.04;100.00;100596.34;4962969;28;20051;-79
2023/01/14 08:50:10;;;;;;;33.25;5.22;;;;;;;5.06;100.00;100591.16;4953856;28;20050;-80
2023/01/14 08:52:37;;;;;;;26.23;5.47;;;;;;;5.07;100.00;100585.09;4942238;29;20058;-80
2023/01/14 08:55:05;;;;;;;21.45;4.68;;;;;;;5.08;100.00;100577.31;4935056;28;20047;-80
2023/01/14 08:57:33;;;;;;;29.33;4.63;;;;;;;5.10;100.00;100573.81;4940663;28;20077;-80
2023/01/14 09:00:00;;;;;;;25.88;5.47;;;;;;;5.11;100.00;100567.75;4952407;28;20043;-81
2023/01/14 09:02:27;;;;;;;22.88;5.43;;;;;;;5.12;100.00;100561.69;4952504;28;20058;-83
2023/01/14 09:04:55;;;;;;;36.67;5.85;;;;;;;5.13;100.00;100553.00;4939842;28;20050;-80
2023/01/14 09:18:27;;;;;;;24.30;5.30;;;;;;;5.18;100.00;100527.84;4931584;28;20050;-82
2023/01/14 09:20:55;;;;;;;30.67;5.05;;;;;;;5.17;100.00;100519.13;4927059;28;20083;-82
2023/01/14 09:23:22;;;;;;;32.65;6.13;;;;;;;5.17;100.00;100510.41;4938485;28;20043;-81
2023/01/14 09:25:50;;;;;;;27.40;4.97;;;;;;;5.19;100.00;100495.66;4931602;28;20047;-81
2023/01/14 09:28:17;;;;;;;23.80;5.20;;;;;;;5.19;100.00;100495.66;4944604;28;20058;-82
2023/01/14 09:30:46;;;;;;;23.40;5.45;;;;;;;5.21;100.00;100488.72;4947847;28;20070;-81
2023/01/14 09:33:13;;;;;;;23.83;4.50;;;;;;;5.20;100.00;100476.53;4931607;28;20050;-80
2023/01/14 09:35:41;;;;;;;25.85;5.07;;;;;;;5.20;100.00;100469.56;4948937;28;20039;-81
2023/01/14 09:38:08;;;;;;;26.75;4.65;;;;;;;5.21;100.00;100454.75;4944511;28;20063;-81
2023/01/14 09:40:38;;;;;;;22.35;5.32;;;;;;;5.21;100.00;100455.63;4934800;28;20043;-81
2023/01/14 09:43:14;;;;;;;24.33;5.35;;;;;;;5.21;100.00;100445.19;4946046;28;20053;-81
2023/01/14 09:45:42;;;;;;;20.48;4.88;;;;;;;5.22;100.00;100430.41;4964072;28;20045;-80
2023/01/14 09:48:16;;;;;;;21.40;3.80;;;;;;;5.22;100.00;100433.91;4955607;28;20052;-81
2023/01/14 09:51:10;;;;;;;20.58;4.25;;;;;;;5.22;100.00;100418.22;4957704;28;20070;-81
2023/01/14 09:54:30;;;;;;;23.90;4.10;;;;;;;5.22;100.00;100409.50;4928829;28;20047;-81
2023/01/14 09:57:09;;;;;;;17.77;3.90;;;;;;;5.23;100.00;100398.19;4941666;28;20047;-82
2023/01/14 09:59:55;;;;;;;20.48;4.00;;;;;;;5.23;100.00;100377.28;4936095;28;20055;-82
2023/01/14 10:02:40;;;;;;;20.85;3.47;;;;;;;5.24;100.00;100363.41;4943807;28;20047;-81
2023/01/14 10:05:21;;;;;;;21.70;4.10;;;;;;;5.23;100.00;100356.41;4945338;28;20054;-81
2023/01/14 10:07:49;;;;;;;18.25;4.15;;;;;;;5.24;100.00;100347.72;4958246;28;20416;-82
2023/01/14 10:10:25;;;;;;;19.27;3.80;;;;;;;5.25;100.00;100331.19;4916975;28;20042;-82
2023/01/14 10:12:56;;;;;;;15.75;4.28;;;;;;;5.27;100.00;100326.84;4947860;28;20047;-82
2023/01/14 10:15:34;;;;;;;25.35;4.68;;;;;;;5.26;100.00;100317.28;4930148;28;20050;-81
2023/01/14 10:18:26;;;;;;;22.85;3.88;;;;;;;5.26;100.00;100299.00;4956753;28;20055;-81
2023/01/14 10:21:13;;;;;;;15.00;3.78;;;;;;;5.28;100.00;100289.44;4944017;28;20059;-81
2023/01/14 10:23:41;;;;;;;19.35;3.90;;;;;;;5.27;100.00;100270.28;4950417;28;20512;-83
2023/01/14 10:26:18;;;;;;;30.30;4.85;;;;;;;5.29;100.00;100272.88;4923656;28;20062;-81
2023/01/14 10:28:50;;;;;;;19.67;4.10;;;;;;;5.28;100.00;100245.03;4954062;28;20058;-82
2023/01/14 10:31:27;;;;;;;22.25;4.30;;;;;;;5.30;100.00;100237.22;4950889;28;20046;-81
2023/01/14 10:33:57;;;;;;;18.90;4.07;;;;;;;5.31;100.00;100220.66;4944364;28;20047;-81
2023/01/14 10:36:29;;;;;;;21.35;3.97;;;;;;;5.31;100.00;100208.47;4963143;28;20049;-81
2023/01/14 10:38:59;;;;;;;14.05;3.45;;;;;;;5.31;100.00;100192.81;4951502;28;20058;-80
2023/01/14 10:44:30;;;;;;;20.13;4.03;;;;;;;5.33;100.00;100175.44;4942828;28;20082;-81
2023/01/14 10:47:06;;;;;;;14.82;3.75;;;;;;;5.35;100.00;100151.91;4954200;28;20047;-81
2023/01/14 10:49:50;;;;;;;15.70;3.55;;;;;;;5.37;100.00;100143.28;4950334;28;20047;-80
2023/01/14 10:52:31;;;;;;;16.40;4.07;;;;;;;5.39;100.00;100136.31;4963270;28;20043;-81
2023/01/14 10:55:11;;;;;;;17.17;3.30;;;;;;;5.41;100.00;100125.91;4947536;28;20050;-81
2023/01/14 10:58:06;;;;;;;18.10;4.55;;;;;;;5.42;100.00;100102.38;4949635;28;20620;-81
2023/01/14 11:00:38;;;;;;;15.20;3.65;;;;;;;5.45;100.00;100112.00;4961957;28;20051;-82
2023/01/14 11:03:20;;;;;;;15.45;3.70;;;;;;;5.47;100.00;100102.44;4961375;28;20531;-82
2023/01/14 11:05:55;;;;;;;12.27;3.63;;;;;;;5.51;100.00;100093.78;4949397;28;20047;-82
2023/01/14 11:08:38;;;;;;;9.55;3.58;;;;;;;5.54;100.00;100087.69;4948975;28;20054;-83
2023/01/14 11:11:17;;;;;;;14.73;4.18;;;;;;;5.55;100.00;100071.16;4924463;28;20055;-83
2023/01/14 11:13:51;;;;;;;14.27;5.07;;;;;;;5.58;100.00;100073.84;4939570;28;20078;-82
2023/01/14 11:16:21;;;;;;;13.38;3.97;;;;;;;5.61;100.00;100072.13;4930300;28;20062;-82
2023/01/14 11:18:53;;;;;;;20.10;4.90;;;;;;;5.63;100.00;100061.66;4959602;28;20051;-82
2023/01/14 11:21:22;;;;;;;12.80;4.22;;;;;;;5.64;100.00;100039.91;4947190;28;20051;-82
2023/01/14 11:23:58;;;;;;;15.75;4.68;;;;;;;5.66;100.00;100028.59;4920854;28;20058;-81
2023/01/14 11:26:39;;;;;;;12.88;4.32;;;;;;;5.68;100.00;100020.78;4960933;28;20066;-82
2023/01/14 11:29:29;;;;;;;9.02;4.20;;;;;;;5.70;100.00;100005.97;4924298;29;20051;-81
2023/01/14 11:32:11;;;;;;;11.25;4.13;;;;;;;5.72;100.00;99996.41;4940041;28;20046;-80
2023/01/14 11:34:44;;;;;;;8.20;4.00;;;;;;;5.75;100.00;99987.75;4965223;28;20054;-81
2023/01/14 11:37:19;;;;;;;12.77;3.90;;;;;;;5.77;100.00;99973.81;4933234;28;20055;-82
2023/01/14 11:40:19;;;;;;;6.30;3.95;;;;;;;5.81;100.00;99943.34;4948325;28;20051;-81
2023/01/14 11:42:47;;;;;;;10.35;3.70;;;;;;;5.83;100.00;99934.63;4951132;28;20044;-80
2023/01/14 11:45:17;;;;;;;9.00;3.50;;;;;;;5.85;100.00;99926.81;4882627;28;21134;-81
2023/01/14 11:47:53;;;;;;;12.80;3.20;;;;;;;5.86;100.00;99910.28;4973802;28;20082;-81
2023/01/14 11:50:29;;;;;;;7.38;3.00;;;;;;;5.88;100.00;99891.94;4970865;28;20043;-81
2023/01/14 11:53:18;;;;;;;7.70;2.97;;;;;;;5.89;100.00;99880.66;4944321;28;20054;-81
2023/01/14 11:55:50;;;;;;;7.55;2.78;;;;;;;5.92;100.00;99858.00;4950597;28;20547;-81
2023/01/14 11:58:21;;;;;;;6.28;3.15;;;;;;;5.93;100.00;99849.28;4956966;28;20050;-81
2023/01/14 12:00:48;;;;;;;;;;;;;;;5.95;100.00;99831.00;4921482;29;20066;-80
2023/01/14 12:03:54;;;;;;;5.55;2.92;;;;;;;5.95;100.00;99825.75;4965981;28;19934;-81
2023/01/14 12:06:27;;;;;;;7.85;3.17;;;;;;;5.96;100.00;99802.28;4946243;28;20051;-81
2023/01/14 12:09:01;;;;;;;7.55;3.20;;;;;;;5.98;100.00;99799.69;4936551;28;20046;-80
2023/01/14 12:11:39;;;;;;;6.53;2.65;;;;;;;5.99;100.00;99783.09;4960163;28;20053;-79
2023/01/14 12:17:08;;;;;;;8.90;3.13;;;;;;;6.00;100.00;99745.63;4926303;28;20057;-80